sensor_id;sensor_type;location;lat;lon;timestamp;pressure;altitude;pressure_sealevel;temperature;humidity
56689;BME280;42565;53.342;-1.534;2023-05-06T00:02:15;98667.03;;;15.26;66.23
56689;BME280;42565;53.342;-1.534;2023-05-06T00:04:42;98669.71;;;14.80;66.60
56689;BME280;42565;53.342;-1.534;2023-05-06T00:07:09;98673.61;;;15.26;67.61
56689;BME280;42565;53.342;-1.534;2023-05-06T00:09:37;98674.56;;;14.55;69.48
56689;BME280;42565;53.342;-1.534;2023-05-06T00:12:04;98675.25;;;14.15;70.75
56689;BME280;42565;53.342;-1.534;2023-05-06T00:14:31;98675.87;;;13.71;72.26
56689;BME280;42565;53.342;-1.534;2023-05-06T00:16:59;98681.00;;;12.91;73.73
56689;BME280;42565;53.342;-1.534;2023-05-06T00:19:26;98683.20;;;13.51;73.38
56689;BME280;42565;53.342;-1.534;2023-05-06T00:21:53;98682.44;;;13.93;73.33
56689;BME280;42565;53.342;-1.534;2023-05-06T00:24:23;98686.43;;;13.57;73.27
56689;BME280;42565;53.342;-1.534;2023-05-06T00:26:52;98687.16;;;13.60;73.74
56689;BME280;42565;53.342;-1.534;2023-05-06T00:29:19;98686.90;;;13.68;73.10
56689;BME280;42565;53.342;-1.534;2023-05-06T00:31:46;98689.42;;;13.79;72.33
56689;BME280;42565;53.342;-1.534;2023-05-06T00:34:13;98684.15;;;13.80;73.57
56689;BME280;42565;53.342;-1.534;2023-05-06T00:36:40;98682.13;;;13.71;72.66
56689;BME280;42565;53.342;-1.534;2023-05-06T00:39:07;98681.84;;;14.06;71.94
56689;BME280;42565;53.342;-1.534;2023-05-06T00:41:34;98676.56;;;13.97;72.80
56689;BME280;42565;53.342;-1.534;2023-05-06T00:44:02;98675.11;;;14.05;72.44
56689;BME280;42565;53.342;-1.534;2023-05-06T00:46:29;98668.31;;;13.45;73.64
56689;BME280;42565;53.342;-1.534;2023-05-06T00:48:56;98667.39;;;13.85;73.32
56689;BME280;42565;53.342;-1.534;2023-05-06T00:51:23;98663.55;;;13.29;73.29
56689;BME280;42565;53.342;-1.534;2023-05-06T00:53:50;98664.18;;;13.34;74.53
56689;BME280;42565;53.342;-1.534;2023-05-06T00:56:18;98659.09;;;13.24;74.27
56689;BME280;42565;53.342;-1.534;2023-05-06T00:58:47;98655.79;;;13.26;75.06
56689;BME280;42565;53.342;-1.534;2023-05-06T01:01:13;98654.11;;;13.52;75.06
56689;BME280;42565;53.342;-1.534;2023-05-06T01:03:40;98653.41;;;13.44;75.44
56689;BME280;42565;53.342;-1.534;2023-05-06T01:06:18;98647.26;;;13.43;74.87
56689;BME280;42565;53.342;-1.534;2023-05-06T01:08:53;98647.96;;;13.48;74.69
56689;BME280;42565;53.342;-1.534;2023-05-06T01:11:28;98648.50;;;13.36;74.68
56689;BME280;42565;53.342;-1.534;2023-05-06T01:14:06;98650.14;;;13.60;74.50
56689;BME280;42565;53.342;-1.534;2023-05-06T01:16:38;98648.68;;;13.41;74.26
56689;BME280;42565;53.342;-1.534;2023-05-06T01:19:08;98649.86;;;13.55;75.56
56689;BME280;42565;53.342;-1.534;2023-05-06T01:21:44;98648.62;;;13.32;74.32
56689;BME280;42565;53.342;-1.534;2023-05-06T01:24:11;98649.89;;;13.38;75.01
56689;BME280;42565;53.342;-1.534;2023-05-06T01:26:39;98650.47;;;13.85;73.54
56689;BME280;42565;53.342;-1.534;2023-05-06T01:29:05;98645.86;;;13.84;74.34
56689;BME280;42565;53.342;-1.534;2023-05-06T01:31:39;98645.56;;;13.97;73.55
56689;BME280;42565;53.342;-1.534;2023-05-06T01:34:13;98641.59;;;13.76;73.41
56689;BME280;42565;53.342;-1.534;2023-05-06T01:36:48;98640.94;;;13.75;73.56
56689;BME280;42565;53.342;-1.534;2023-05-06T01:39:22;98640.58;;;14.07;72.25
56689;BME280;42565;53.342;-1.534;2023-05-06T01:41:50;98646.20;;;13.82;73.55
56689;BME280;42565;53.342;-1.534;2023-05-06T01:44:21;98649.62;;;13.12;73.98
56689;BME280;42565;53.342;-1.534;2023-05-06T01:46:49;98647.39;;;13.53;73.60
56689;BME280;42565;53.342;-1.534;2023-05-06T01:49:17;98648.86;;;13.34;73.88
56689;BME280;42565;53.342;-1.534;2023-05-06T01:51:46;98650.23;;;12.65;76.66
56689;BME280;42565;53.342;-1.534;2023-05-06T01:54:13;98648.83;;;13.31;75.93
56689;BME280;42565;53.342;-1.534;2023-05-06T01:56:41;98651.25;;;12.99;74.17
56689;BME280;42565;53.342;-1.534;2023-05-06T01:59:08;98655.30;;;13.78;73.17
56689;BME280;42565;53.342;-1.534;2023-05-06T02:01:35;98657.31;;;14.08;71.39
56689;BME280;42565;53.342;-1.534;2023-05-06T02:04:02;98659.51;;;13.53;72.18
56689;BME280;42565;53.342;-1.534;2023-05-06T02:06:30;98658.53;;;12.64;74.94
56689;BME280;42565;53.342;-1.534;2023-05-06T02:08:56;98661.94;;;12.87;75.89
56689;BME280;42565;53.342;-1.534;2023-05-06T02:11:23;98660.15;;;12.22;77.67
56689;BME280;42565;53.342;-1.534;2023-05-06T02:13:51;98657.54;;;12.32;78.20
56689;BME280;42565;53.342;-1.534;2023-05-06T02:16:18;98659.62;;;12.31;77.53
56689;BME280;42565;53.342;-1.534;2023-05-06T02:18:46;98665.43;;;12.03;79.38
56689;BME280;42565;53.342;-1.534;2023-05-06T02:21:13;98666.87;;;12.12;81.36
56689;BME280;42565;53.342;-1.534;2023-05-06T02:23:39;98663.40;;;11.81;81.82
56689;BME280;42565;53.342;-1.534;2023-05-06T02:26:07;98660.11;;;12.58;78.61
56689;BME280;42565;53.342;-1.534;2023-05-06T02:28:34;98662.47;;;12.53;79.03
56689;BME280;42565;53.342;-1.534;2023-05-06T02:31:01;98659.77;;;13.17;76.90
56689;BME280;42565;53.342;-1.534;2023-05-06T02:33:28;98661.27;;;12.86;77.43
56689;BME280;42565;53.342;-1.534;2023-05-06T02:35:56;98660.38;;;13.51;75.73
56689;BME280;42565;53.342;-1.534;2023-05-06T02:38:23;98660.32;;;12.80;74.79
56689;BME280;42565;53.342;-1.534;2023-05-06T02:40:51;98659.45;;;13.12;75.50
56689;BME280;42565;53.342;-1.534;2023-05-06T02:43:18;98659.57;;;13.17;74.76
56689;BME280;42565;53.342;-1.534;2023-05-06T02:45:45;98652.67;;;13.35;75.47
56689;BME280;42565;53.342;-1.534;2023-05-06T02:48:12;98652.05;;;13.20;74.84
56689;BME280;42565;53.342;-1.534;2023-05-06T02:50:39;98647.88;;;13.08;75.39
56689;BME280;42565;53.342;-1.534;2023-05-06T02:53:06;98652.91;;;13.07;76.19
56689;BME280;42565;53.342;-1.534;2023-05-06T02:55:34;98660.79;;;11.86;80.27
56689;BME280;42565;53.342;-1.534;2023-05-06T02:58:01;98659.34;;;12.02;80.61
56689;BME280;42565;53.342;-1.534;2023-05-06T03:00:28;98652.08;;;12.74;77.62
56689;BME280;42565;53.342;-1.534;2023-05-06T03:02:55;98649.31;;;13.13;75.67
56689;BME280;42565;53.342;-1.534;2023-05-06T03:05:22;98652.63;;;12.57;76.49
56689;BME280;42565;53.342;-1.534;2023-05-06T03:07:49;98655.24;;;12.38;78.29
56689;BME280;42565;53.342;-1.534;2023-05-06T03:10:17;98660.19;;;12.79;77.34
56689;BME280;42565;53.342;-1.534;2023-05-06T03:12:45;98657.25;;;12.54;77.73
56689;BME280;42565;53.342;-1.534;2023-05-06T03:15:12;98648.51;;;12.60;77.75
56689;BME280;42565;53.342;-1.534;2023-05-06T03:17:39;98648.00;;;12.49;78.06
56689;BME280;42565;53.342;-1.534;2023-05-06T03:20:07;98645.79;;;12.66;77.49
56689;BME280;42565;53.342;-1.534;2023-05-06T03:22:35;98652.45;;;12.88;76.68
56689;BME280;42565;53.342;-1.534;2023-05-06T03:25:02;98650.50;;;12.63;77.95
56689;BME280;42565;53.342;-1.534;2023-05-06T03:27:29;98644.40;;;12.95;75.56
56689;BME280;42565;53.342;-1.534;2023-05-06T03:29:56;98644.37;;;13.53;73.85
56689;BME280;42565;53.342;-1.534;2023-05-06T03:32:23;98639.05;;;13.46;72.44
56689;BME280;42565;53.342;-1.534;2023-05-06T03:34:49;98637.90;;;13.92;71.14
56689;BME280;42565;53.342;-1.534;2023-05-06T03:37:17;98638.86;;;13.99;70.33
56689;BME280;42565;53.342;-1.534;2023-05-06T03:39:45;98643.03;;;14.06;69.69
56689;BME280;42565;53.342;-1.534;2023-05-06T03:42:11;98644.61;;;14.35;69.65
56689;BME280;42565;53.342;-1.534;2023-05-06T03:44:39;98645.20;;;14.33;69.39
56689;BME280;42565;53.342;-1.534;2023-05-06T03:47:06;98641.19;;;14.23;69.76
56689;BME280;42565;53.342;-1.534;2023-05-06T03:49:33;98638.66;;;14.30;69.96
56689;BME280;42565;53.342;-1.534;2023-05-06T03:52:01;98636.66;;;14.15;70.62
56689;BME280;42565;53.342;-1.534;2023-05-06T03:54:29;98637.73;;;14.36;68.73
56689;BME280;42565;53.342;-1.534;2023-05-06T03:56:56;98636.55;;;14.13;69.31
56689;BME280;42565;53.342;-1.534;2023-05-06T03:59:23;98634.35;;;14.00;68.57
56689;BME280;42565;53.342;-1.534;2023-05-06T04:01:50;98634.03;;;14.56;68.39
56689;BME280;42565;53.342;-1.534;2023-05-06T04:04:17;98634.97;;;13.64;69.74
56689;BME280;42565;53.342;-1.534;2023-05-06T04:06:44;98639.09;;;14.17;69.77
56689;BME280;42565;53.342;-1.534;2023-05-06T04:09:11;98642.32;;;14.05;69.78
56689;BME280;42565;53.342;-1.534;2023-05-06T04:11:38;98644.39;;;14.03;69.89
56689;BME280;42565;53.342;-1.534;2023-05-06T04:14:05;98646.04;;;14.04;68.52
56689;BME280;42565;53.342;-1.534;2023-05-06T04:16:31;98647.86;;;14.07;66.64
56689;BME280;42565;53.342;-1.534;2023-05-06T04:18:58;98651.89;;;14.17;67.55
56689;BME280;42565;53.342;-1.534;2023-05-06T04:21:25;98650.31;;;13.73;67.94
56689;BME280;42565;53.342;-1.534;2023-05-06T04:23:52;98649.26;;;13.83;68.67
56689;BME280;42565;53.342;-1.534;2023-05-06T04:26:19;98646.03;;;13.91;67.52
56689;BME280;42565;53.342;-1.534;2023-05-06T04:28:46;98644.55;;;13.69;67.82
56689;BME280;42565;53.342;-1.534;2023-05-06T04:31:12;98644.61;;;14.22;67.55
56689;BME280;42565;53.342;-1.534;2023-05-06T04:33:39;98644.26;;;13.52;67.94
56689;BME280;42565;53.342;-1.534;2023-05-06T04:36:07;98646.32;;;13.53;69.02
56689;BME280;42565;53.342;-1.534;2023-05-06T04:38:34;98654.52;;;13.34;70.34
56689;BME280;42565;53.342;-1.534;2023-05-06T04:41:01;98660.20;;;13.09;71.88
56689;BME280;42565;53.342;-1.534;2023-05-06T04:43:28;98661.01;;;13.32;70.18
56689;BME280;42565;53.342;-1.534;2023-05-06T04:45:55;98662.16;;;13.66;69.01
56689;BME280;42565;53.342;-1.534;2023-05-06T04:48:22;98659.82;;;12.93;69.09
56689;BME280;42565;53.342;-1.534;2023-05-06T04:50:50;98656.21;;;13.81;69.49
56689;BME280;42565;53.342;-1.534;2023-05-06T04:53:17;98661.74;;;13.86;69.28
56689;BME280;42565;53.342;-1.534;2023-05-06T04:55:44;98668.21;;;13.48;70.14
56689;BME280;42565;53.342;-1.534;2023-05-06T04:58:11;98671.50;;;13.10;70.73
56689;BME280;42565;53.342;-1.534;2023-05-06T05:00:38;98664.54;;;13.50;70.12
56689;BME280;42565;53.342;-1.534;2023-05-06T05:03:05;98667.81;;;13.41;70.15
56689;BME280;42565;53.342;-1.534;2023-05-06T05:05:32;98673.68;;;12.61;73.21
56689;BME280;42565;53.342;-1.534;2023-05-06T05:07:59;98678.17;;;12.98;72.62
56689;BME280;42565;53.342;-1.534;2023-05-06T05:10:26;98677.87;;;12.92;73.22
56689;BME280;42565;53.342;-1.534;2023-05-06T05:12:53;98680.53;;;12.87;73.30
56689;BME280;42565;53.342;-1.534;2023-05-06T05:15:20;98685.39;;;12.58;72.42
56689;BME280;42565;53.342;-1.534;2023-05-06T05:17:48;98681.58;;;13.07;70.96
56689;BME280;42565;53.342;-1.534;2023-05-06T05:20:15;98681.77;;;12.92;72.26
56689;BME280;42565;53.342;-1.534;2023-05-06T05:22:42;98687.07;;;13.17;73.23
56689;BME280;42565;53.342;-1.534;2023-05-06T05:25:10;98689.47;;;12.44;74.38
56689;BME280;42565;53.342;-1.534;2023-05-06T05:27:36;98696.90;;;12.74;74.15
56689;BME280;42565;53.342;-1.534;2023-05-06T05:30:04;98699.36;;;12.85;74.61
56689;BME280;42565;53.342;-1.534;2023-05-06T05:32:32;98709.69;;;12.51;76.09
56689;BME280;42565;53.342;-1.534;2023-05-06T05:34:59;98712.09;;;11.96;77.82
56689;BME280;42565;53.342;-1.534;2023-05-06T05:37:26;98718.69;;;11.63;80.23
56689;BME280;42565;53.342;-1.534;2023-05-06T05:39:53;98726.52;;;12.47;78.35
56689;BME280;42565;53.342;-1.534;2023-05-06T05:42:20;98721.38;;;12.36;77.13
56689;BME280;42565;53.342;-1.534;2023-05-06T05:44:47;98724.61;;;12.49;77.07
56689;BME280;42565;53.342;-1.534;2023-05-06T05:47:14;98725.23;;;12.16;77.80
56689;BME280;42565;53.342;-1.534;2023-05-06T05:49:42;98722.19;;;12.77;76.11
56689;BME280;42565;53.342;-1.534;2023-05-06T05:52:09;98718.44;;;12.90;75.67
56689;BME280;42565;53.342;-1.534;2023-05-06T05:54:36;98725.68;;;13.00;74.90
56689;BME280;42565;53.342;-1.534;2023-05-06T05:57:03;98723.82;;;13.51;73.94
56689;BME280;42565;53.342;-1.534;2023-05-06T05:59:31;98727.81;;;13.47;73.69
56689;BME280;42565;53.342;-1.534;2023-05-06T06:01:58;98729.48;;;13.18;74.97
56689;BME280;42565;53.342;-1.534;2023-05-06T06:04:25;98727.26;;;12.73;75.35
56689;BME280;42565;53.342;-1.534;2023-05-06T06:06:51;98727.39;;;12.98;76.15
56689;BME280;42565;53.342;-1.534;2023-05-06T06:09:19;98729.64;;;13.32;75.03
56689;BME280;42565;53.342;-1.534;2023-05-06T06:11:46;98724.43;;;13.09;76.25
56689;BME280;42565;53.342;-1.534;2023-05-06T06:14:13;98729.35;;;12.70;77.91
56689;BME280;42565;53.342;-1.534;2023-05-06T06:16:40;98725.06;;;13.28;77.07
56689;BME280;42565;53.342;-1.534;2023-05-06T06:19:08;98727.72;;;13.11;76.64
56689;BME280;42565;53.342;-1.534;2023-05-06T06:21:35;98733.66;;;13.43;76.10
56689;BME280;42565;53.342;-1.534;2023-05-06T06:24:02;98731.41;;;13.07;77.75
56689;BME280;42565;53.342;-1.534;2023-05-06T06:26:29;98729.97;;;13.07;77.27
56689;BME280;42565;53.342;-1.534;2023-05-06T06:28:55;98736.35;;;12.52;79.99
56689;BME280;42565;53.342;-1.534;2023-05-06T06:31:22;98741.96;;;12.05;83.14
56689;BME280;42565;53.342;-1.534;2023-05-06T06:33:50;98742.40;;;11.68;84.37
56689;BME280;42565;53.342;-1.534;2023-05-06T06:36:17;98741.90;;;11.63;85.12
56689;BME280;42565;53.342;-1.534;2023-05-06T06:38:44;98741.20;;;11.90;84.34
56689;BME280;42565;53.342;-1.534;2023-05-06T06:41:11;98744.99;;;11.91;84.98
56689;BME280;42565;53.342;-1.534;2023-05-06T06:43:38;98740.71;;;11.60;86.26
56689;BME280;42565;53.342;-1.534;2023-05-06T06:46:05;98740.60;;;11.72;86.56
56689;BME280;42565;53.342;-1.534;2023-05-06T06:48:33;98739.85;;;11.96;84.51
56689;BME280;42565;53.342;-1.534;2023-05-06T06:51:00;98740.58;;;11.98;85.41
56689;BME280;42565;53.342;-1.534;2023-05-06T06:53:27;98734.41;;;12.95;82.04
56689;BME280;42565;53.342;-1.534;2023-05-06T06:55:54;98733.32;;;13.00;81.70
56689;BME280;42565;53.342;-1.534;2023-05-06T06:58:21;98735.71;;;12.47;82.28
56689;BME280;42565;53.342;-1.534;2023-05-06T07:00:48;98738.44;;;13.05;81.76
56689;BME280;42565;53.342;-1.534;2023-05-06T07:03:15;98743.46;;;12.61;82.56
56689;BME280;42565;53.342;-1.534;2023-05-06T07:05:41;98738.49;;;12.57;83.04
56689;BME280;42565;53.342;-1.534;2023-05-06T07:08:09;98738.56;;;13.47;81.31
56689;BME280;42565;53.342;-1.534;2023-05-06T07:10:35;98738.82;;;13.19;80.47
56689;BME280;42565;53.342;-1.534;2023-05-06T07:13:03;98734.97;;;13.74;78.53
56689;BME280;42565;53.342;-1.534;2023-05-06T07:15:30;98735.19;;;13.73;78.02
56689;BME280;42565;53.342;-1.534;2023-05-06T07:17:57;98735.29;;;13.92;77.63
56689;BME280;42565;53.342;-1.534;2023-05-06T07:20:24;98739.93;;;12.48;80.02
56689;BME280;42565;53.342;-1.534;2023-05-06T07:22:50;98745.67;;;12.64;82.29
56689;BME280;42565;53.342;-1.534;2023-05-06T07:25:19;98744.79;;;13.04;82.17
56689;BME280;42565;53.342;-1.534;2023-05-06T07:27:45;98744.92;;;12.96;82.92
56689;BME280;42565;53.342;-1.534;2023-05-06T07:30:13;98744.90;;;13.15;82.10
56689;BME280;42565;53.342;-1.534;2023-05-06T07:32:40;98744.42;;;13.35;82.09
56689;BME280;42565;53.342;-1.534;2023-05-06T07:35:08;98738.94;;;12.94;82.38
56689;BME280;42565;53.342;-1.534;2023-05-06T07:37:35;98743.32;;;13.37;82.38
56689;BME280;42565;53.342;-1.534;2023-05-06T07:40:02;98741.35;;;13.16;81.56
56689;BME280;42565;53.342;-1.534;2023-05-06T07:42:29;98735.88;;;13.47;80.13
56689;BME280;42565;53.342;-1.534;2023-05-06T07:44:56;98734.14;;;14.40;76.78
56689;BME280;42565;53.342;-1.534;2023-05-06T07:47:27;98735.90;;;13.57;79.45
56689;BME280;42565;53.342;-1.534;2023-05-06T07:49:56;98739.55;;;14.14;78.92
56689;BME280;42565;53.342;-1.534;2023-05-06T07:52:23;98739.34;;;13.45;78.76
56689;BME280;42565;53.342;-1.534;2023-05-06T07:54:51;98741.65;;;13.83;79.31
56689;BME280;42565;53.342;-1.534;2023-05-06T07:57:18;98736.46;;;13.73;79.38
56689;BME280;42565;53.342;-1.534;2023-05-06T07:59:46;98736.36;;;13.82;79.96
56689;BME280;42565;53.342;-1.534;2023-05-06T08:02:14;98734.67;;;14.13;78.38
56689;BME280;42565;53.342;-1.534;2023-05-06T08:04:41;98733.46;;;14.30;76.12
56689;BME280;42565;53.342;-1.534;2023-05-06T08:07:09;98729.54;;;14.82;73.31
56689;BME280;42565;53.342;-1.534;2023-05-06T08:09:36;98727.59;;;15.57;69.86
56689;BME280;42565;53.342;-1.534;2023-05-06T08:12:03;98730.47;;;15.63;69.23
56689;BME280;42565;53.342;-1.534;2023-05-06T08:14:30;98730.75;;;15.74;70.70
56689;BME280;42565;53.342;-1.534;2023-05-06T08:16:57;98727.51;;;15.93;67.79
56689;BME280;42565;53.342;-1.534;2023-05-06T08:19:24;98730.44;;;15.55;69.86
56689;BME280;42565;53.342;-1.534;2023-05-06T08:21:51;98728.64;;;15.85;69.49
56689;BME280;42565;53.342;-1.534;2023-05-06T08:24:19;98729.95;;;15.67;69.51
56689;BME280;42565;53.342;-1.534;2023-05-06T08:26:46;98730.77;;;16.18;68.51
56689;BME280;42565;53.342;-1.534;2023-05-06T08:29:14;98730.26;;;15.57;68.12
56689;BME280;42565;53.342;-1.534;2023-05-06T08:31:41;98730.65;;;15.75;68.72
56689;BME280;42565;53.342;-1.534;2023-05-06T08:34:08;98732.07;;;15.66;67.45
56689;BME280;42565;53.342;-1.534;2023-05-06T08:36:35;98733.64;;;15.43;67.63
56689;BME280;42565;53.342;-1.534;2023-05-06T08:39:01;98729.38;;;15.25;69.41
56689;BME280;42565;53.342;-1.534;2023-05-06T08:41:29;98731.28;;;14.88;70.36
56689;BME280;42565;53.342;-1.534;2023-05-06T08:44:00;98733.24;;;14.78;73.75
56689;BME280;42565;53.342;-1.534;2023-05-06T08:46:27;98736.52;;;14.14;72.97
56689;BME280;42565;53.342;-1.534;2023-05-06T08:48:55;98733.19;;;15.12;69.85
56689;BME280;42565;53.342;-1.534;2023-05-06T08:51:27;98735.08;;;15.72;72.58
56689;BME280;42565;53.342;-1.534;2023-05-06T08:53:54;98734.54;;;15.40;66.57
56689;BME280;42565;53.342;-1.534;2023-05-06T08:56:27;98736.28;;;15.24;67.43
56689;BME280;42565;53.342;-1.534;2023-05-06T08:58:56;98733.28;;;15.40;72.67
56689;BME280;42565;53.342;-1.534;2023-05-06T09:01:24;98730.76;;;15.83;70.39
56689;BME280;42565;53.342;-1.534;2023-05-06T09:03:52;98731.71;;;16.01;67.27
56689;BME280;42565;53.342;-1.534;2023-05-06T09:06:20;98727.72;;;16.20;67.22
56689;BME280;42565;53.342;-1.534;2023-05-06T09:08:47;98728.13;;;15.89;70.98
56689;BME280;42565;53.342;-1.534;2023-05-06T09:11:22;98734.56;;;15.13;73.72
56689;BME280;42565;53.342;-1.534;2023-05-06T09:13:51;98730.65;;;15.32;70.07
56689;BME280;42565;53.342;-1.534;2023-05-06T09:16:32;98738.05;;;14.48;69.07
56689;BME280;42565;53.342;-1.534;2023-05-06T09:18:59;98732.13;;;14.55;72.94
56689;BME280;42565;53.342;-1.534;2023-05-06T09:21:32;98735.44;;;14.32;73.09
56689;BME280;42565;53.342;-1.534;2023-05-06T09:23:59;98739.31;;;14.67;71.97
56689;BME280;42565;53.342;-1.534;2023-05-06T09:26:28;98743.78;;;14.46;69.10
56689;BME280;42565;53.342;-1.534;2023-05-06T09:28:55;98741.54;;;15.23;68.92
56689;BME280;42565;53.342;-1.534;2023-05-06T09:31:23;98743.55;;;14.21;71.24
56689;BME280;42565;53.342;-1.534;2023-05-06T09:33:50;98736.63;;;14.13;72.95
56689;BME280;42565;53.342;-1.534;2023-05-06T09:36:18;98739.66;;;14.34;74.32
56689;BME280;42565;53.342;-1.534;2023-05-06T09:38:46;98738.29;;;14.20;72.66
56689;BME280;42565;53.342;-1.534;2023-05-06T09:41:14;98738.48;;;14.14;72.08
56689;BME280;42565;53.342;-1.534;2023-05-06T09:43:42;98739.28;;;13.65;73.99
56689;BME280;42565;53.342;-1.534;2023-05-06T09:46:11;98747.10;;;13.47;73.38
56689;BME280;42565;53.342;-1.534;2023-05-06T09:48:38;98740.08;;;13.50;71.95
56689;BME280;42565;53.342;-1.534;2023-05-06T09:51:06;98732.88;;;13.92;72.18
56689;BME280;42565;53.342;-1.534;2023-05-06T09:53:34;98734.07;;;14.20;70.73
56689;BME280;42565;53.342;-1.534;2023-05-06T09:56:03;98726.44;;;14.01;70.06
56689;BME280;42565;53.342;-1.534;2023-05-06T09:58:31;98727.95;;;14.34;69.50
56689;BME280;42565;53.342;-1.534;2023-05-06T10:00:58;98729.08;;;13.66;71.62
56689;BME280;42565;53.342;-1.534;2023-05-06T10:03:26;98729.61;;;13.80;72.19
56689;BME280;42565;53.342;-1.534;2023-05-06T10:05:54;98727.98;;;13.98;70.34
56689;BME280;42565;53.342;-1.534;2023-05-06T10:08:22;98727.54;;;13.77;72.51
56689;BME280;42565;53.342;-1.534;2023-05-06T10:10:50;98727.05;;;14.16;71.98
56689;BME280;42565;53.342;-1.534;2023-05-06T10:13:19;98724.92;;;14.59;73.22
56689;BME280;42565;53.342;-1.534;2023-05-06T10:15:47;98726.02;;;14.51;72.60
56689;BME280;42565;53.342;-1.534;2023-05-06T10:18:16;98724.85;;;14.65;70.89
56689;BME280;42565;53.342;-1.534;2023-05-06T10:20:44;98725.02;;;14.23;72.94
56689;BME280;42565;53.342;-1.534;2023-05-06T10:23:21;98725.03;;;14.58;72.07
56689;BME280;42565;53.342;-1.534;2023-05-06T10:25:53;98717.32;;;14.34;71.81
56689;BME280;42565;53.342;-1.534;2023-05-06T10:28:21;98723.65;;;14.36;72.33
56689;BME280;42565;53.342;-1.534;2023-05-06T10:30:50;98719.27;;;14.17;71.11
56689;BME280;42565;53.342;-1.534;2023-05-06T10:33:17;98722.91;;;14.18;68.85
56689;BME280;42565;53.342;-1.534;2023-05-06T10:35:50;98724.88;;;14.11;71.17
56689;BME280;42565;53.342;-1.534;2023-05-06T10:38:22;98724.63;;;14.08;73.62
56689;BME280;42565;53.342;-1.534;2023-05-06T10:40:50;98729.37;;;13.60;76.25
56689;BME280;42565;53.342;-1.534;2023-05-06T10:43:22;98717.99;;;13.47;76.15
56689;BME280;42565;53.342;-1.534;2023-05-06T10:46:06;98723.59;;;13.36;76.92
56689;BME280;42565;53.342;-1.534;2023-05-06T10:48:33;98722.58;;;13.37;75.74
56689;BME280;42565;53.342;-1.534;2023-05-06T10:51:33;98720.64;;;13.47;74.71
56689;BME280;42565;53.342;-1.534;2023-05-06T10:54:02;98723.51;;;13.92;73.19
56689;BME280;42565;53.342;-1.534;2023-05-06T10:56:31;98722.05;;;14.11;73.72
56689;BME280;42565;53.342;-1.534;2023-05-06T10:59:01;98717.35;;;14.00;73.94
56689;BME280;42565;53.342;-1.534;2023-05-06T11:01:29;98723.33;;;13.48;75.08
56689;BME280;42565;53.342;-1.534;2023-05-06T11:03:56;98723.86;;;13.73;74.02
56689;BME280;42565;53.342;-1.534;2023-05-06T11:06:41;98727.61;;;13.75;73.21
56689;BME280;42565;53.342;-1.534;2023-05-06T11:09:15;98724.91;;;14.47;71.00
56689;BME280;42565;53.342;-1.534;2023-05-06T11:11:47;98726.02;;;14.48;70.34
56689;BME280;42565;53.342;-1.534;2023-05-06T11:14:23;98719.59;;;14.74;70.09
56689;BME280;42565;53.342;-1.534;2023-05-06T11:16:51;98715.48;;;14.39;72.33
56689;BME280;42565;53.342;-1.534;2023-05-06T11:19:21;98720.43;;;14.24;72.69
56689;BME280;42565;53.342;-1.534;2023-05-06T11:21:49;98717.66;;;14.02;72.89
56689;BME280;42565;53.342;-1.534;2023-05-06T11:24:26;98721.15;;;14.31;70.74
56689;BME280;42565;53.342;-1.534;2023-05-06T11:26:54;98716.91;;;14.39;68.44
56689;BME280;42565;53.342;-1.534;2023-05-06T11:29:23;98725.52;;;14.62;67.07
56689;BME280;42565;53.342;-1.534;2023-05-06T11:31:51;98715.26;;;14.90;65.28
56689;BME280;42565;53.342;-1.534;2023-05-06T11:34:23;98717.53;;;13.96;66.76
56689;BME280;42565;53.342;-1.534;2023-05-06T11:36:57;98711.82;;;14.13;65.41
56689;BME280;42565;53.342;-1.534;2023-05-06T11:39:24;98718.20;;;14.13;66.51
56689;BME280;42565;53.342;-1.534;2023-05-06T11:41:52;98714.25;;;14.74;65.70
56689;BME280;42565;53.342;-1.534;2023-05-06T11:44:28;98708.96;;;14.46;66.69
56689;BME280;42565;53.342;-1.534;2023-05-06T11:46:58;98709.02;;;14.34;66.88
56689;BME280;42565;53.342;-1.534;2023-05-06T11:49:25;98710.68;;;13.78;67.71
56689;BME280;42565;53.342;-1.534;2023-05-06T11:51:54;98706.07;;;14.64;66.89
56689;BME280;42565;53.342;-1.534;2023-05-06T11:54:23;98706.50;;;14.02;66.19
56689;BME280;42565;53.342;-1.534;2023-05-06T11:56:52;98713.30;;;13.91;68.08
56689;BME280;42565;53.342;-1.534;2023-05-06T11:59:26;98713.48;;;14.34;68.48
56689;BME280;42565;53.342;-1.534;2023-05-06T12:01:56;98710.23;;;14.18;69.44
56689;BME280;42565;53.342;-1.534;2023-05-06T12:04:23;98706.87;;;14.39;68.35
56689;BME280;42565;53.342;-1.534;2023-05-06T12:06:51;98711.75;;;14.33;68.41
56689;BME280;42565;53.342;-1.534;2023-05-06T12:09:20;98710.45;;;14.44;67.14
56689;BME280;42565;53.342;-1.534;2023-05-06T12:11:48;98711.19;;;14.06;68.55
56689;BME280;42565;53.342;-1.534;2023-05-06T12:14:16;98712.83;;;14.54;68.04
56689;BME280;42565;53.342;-1.534;2023-05-06T12:16:44;98713.13;;;14.70;69.81
56689;BME280;42565;53.342;-1.534;2023-05-06T12:19:14;98715.83;;;14.78;68.36
56689;BME280;42565;53.342;-1.534;2023-05-06T12:21:41;98712.27;;;14.96;68.34
56689;BME280;42565;53.342;-1.534;2023-05-06T12:24:09;98713.10;;;14.46;70.65
56689;BME280;42565;53.342;-1.534;2023-05-06T12:26:45;98712.15;;;14.20;70.81
56689;BME280;42565;53.342;-1.534;2023-05-06T12:29:13;98710.88;;;14.79;70.18
56689;BME280;42565;53.342;-1.534;2023-05-06T12:31:41;98710.82;;;15.54;68.45
56689;BME280;42565;53.342;-1.534;2023-05-06T12:34:09;98707.64;;;14.90;70.11
56689;BME280;42565;53.342;-1.534;2023-05-06T12:36:41;98714.95;;;14.43;69.80
56689;BME280;42565;53.342;-1.534;2023-05-06T12:39:09;98709.92;;;14.20;71.00
56689;BME280;42565;53.342;-1.534;2023-05-06T12:41:39;98705.24;;;13.99;72.71
56689;BME280;42565;53.342;-1.534;2023-05-06T12:44:38;98704.51;;;14.33;73.31
56689;BME280;42565;53.342;-1.534;2023-05-06T12:47:07;98706.35;;;14.51;70.34
56689;BME280;42565;53.342;-1.534;2023-05-06T12:49:45;98709.61;;;14.73;71.22
56689;BME280;42565;53.342;-1.534;2023-05-06T12:52:12;98711.13;;;14.66;70.42
56689;BME280;42565;53.342;-1.534;2023-05-06T12:54:39;98706.69;;;14.99;69.20
56689;BME280;42565;53.342;-1.534;2023-05-06T12:57:07;98714.25;;;14.58;71.46